createdAt,value
2022-09-12T00:00:13.386Z,34.20
2022-09-12T00:01:13.461Z,33.79
2022-09-12T00:02:13.526Z,34.50
2022-09-12T00:03:13.501Z,34.90
2022-09-12T00:04:13.543Z,32.79
2022-09-12T00:05:13.579Z,33.40
2022-09-12T00:06:13.617Z,33.00
2022-09-12T00:07:13.653Z,33.50
2022-09-12T00:08:13.687Z,33.40
2022-09-12T00:09:13.728Z,33.59
2022-09-12T00:10:13.768Z,33.70
2022-09-12T00:11:13.804Z,33.90
2022-09-12T00:12:13.848Z,34.29
2022-09-12T00:13:13.888Z,35.20
2022-09-12T00:14:13.928Z,35.29
2022-09-12T00:15:13.972Z,35.59
2022-09-12T00:16:14.055Z,35.09
2022-09-12T00:17:14.059Z,34.70
2022-09-12T00:18:14.129Z,34.70
2022-09-12T00:19:14.150Z,35.90
2022-09-12T00:20:14.195Z,34.40
2022-09-12T00:21:14.251Z,33.90
2022-09-12T00:22:14.289Z,34.90
2022-09-12T00:23:14.338Z,37.29
2022-09-12T00:24:14.383Z,36.50
2022-09-12T00:25:14.430Z,37.09
2022-09-12T00:26:14.479Z,37.40
2022-09-12T00:27:14.528Z,35.79
2022-09-12T00:28:14.583Z,35.79
2022-09-12T00:29:14.632Z,34.90
2022-09-12T00:30:14.679Z,36.50
2022-09-12T00:31:14.840Z,34.70
2022-09-12T00:32:14.770Z,33.20
2022-09-12T00:33:14.812Z,33.59
2022-09-12T00:34:14.884Z,33.40
2022-09-12T00:35:14.905Z,34.50
2022-09-12T00:36:14.952Z,34.29
2022-09-12T00:37:15.001Z,34.90
2022-09-12T00:38:15.052Z,35.79
2022-09-12T00:39:15.100Z,34.00
2022-09-12T00:40:15.229Z,34.50
2022-09-12T00:41:15.187Z,33.79
2022-09-12T00:42:15.233Z,36.50
2022-09-12T00:43:15.283Z,33.40
2022-09-12T00:44:15.329Z,35.09
2022-09-12T00:45:15.372Z,32.90
2022-09-12T00:46:15.424Z,33.40
2022-09-12T00:47:15.473Z,33.00
2022-09-12T00:48:15.516Z,33.09
2022-09-12T00:49:15.564Z,33.40
2022-09-12T00:50:15.626Z,35.79
2022-09-12T00:51:15.644Z,33.20
2022-09-12T00:52:15.684Z,35.40
2022-09-12T00:53:15.729Z,35.70
2022-09-12T00:54:15.774Z,35.90
2022-09-12T00:55:15.827Z,34.40
2022-09-12T00:56:15.874Z,34.09
2022-09-12T00:57:15.912Z,36.59
2022-09-12T00:58:15.959Z,36.59
2022-09-12T00:59:16.001Z,36.90
2022-09-12T01:00:16.048Z,36.50
2022-09-12T01:01:16.163Z,36.90
2022-09-12T01:02:16.256Z,37.29
2022-09-12T01:03:16.174Z,37.20
2022-09-12T01:04:16.220Z,36.79
2022-09-12T01:05:16.266Z,35.20
2022-09-12T01:06:16.340Z,34.70
2022-09-12T01:07:16.362Z,34.20
2022-09-12T01:08:16.411Z,34.20
2022-09-12T01:09:16.464Z,34.29
2022-09-12T01:10:16.518Z,37.90
2022-09-12T01:11:16.569Z,41.29
2022-09-12T01:12:16.619Z,42.50
2022-09-12T01:13:16.670Z,42.79
2022-09-12T01:14:16.713Z,45.00
2022-09-12T01:15:16.764Z,44.59
2022-09-12T01:16:16.876Z,47.90
2022-09-12T01:17:16.864Z,46.29
2022-09-12T01:18:16.912Z,48.29
2022-09-12T01:19:16.966Z,47.50
2022-09-12T01:20:17.019Z,48.59
2022-09-12T01:21:17.064Z,45.29
2022-09-12T01:22:17.138Z,45.20
2022-09-12T01:23:17.167Z,42.70
2022-09-12T01:24:17.218Z,44.59
2022-09-12T01:25:17.264Z,43.20
2022-09-12T01:26:17.321Z,42.70
2022-09-12T01:27:17.377Z,41.29
2022-09-12T01:28:17.434Z,42.40
2022-09-12T01:29:17.488Z,43.29
2022-09-12T01:30:17.548Z,39.50
2022-09-12T01:31:17.590Z,41.20
2022-09-12T01:32:17.689Z,44.00
2022-09-12T01:33:17.704Z,43.70
2022-09-12T01:34:17.761Z,44.90
2022-09-12T01:35:17.819Z,45.79
2022-09-12T01:36:17.874Z,45.20
2022-09-12T01:37:17.924Z,44.70
2022-09-12T01:38:18.002Z,45.70
2022-09-12T01:39:18.034Z,45.20
2022-09-12T01:40:18.124Z,43.09
2022-09-12T01:41:18.142Z,43.50
2022-09-12T01:42:18.196Z,41.09
2022-09-12T01:43:18.255Z,39.40
2022-09-12T01:44:18.310Z,43.09
2022-09-12T01:45:18.366Z,39.20
2022-09-12T01:46:18.415Z,36.90
2022-09-12T01:47:18.472Z,37.59
2022-09-12T01:48:18.530Z,37.40
2022-09-12T01:49:18.593Z,37.09
2022-09-12T01:50:18.651Z,38.20
2022-09-12T01:51:18.707Z,40.70
2022-09-12T01:52:18.768Z,37.29
2022-09-12T01:53:18.822Z,38.20
2022-09-12T01:54:18.897Z,39.90
2022-09-12T01:55:18.924Z,41.70
2022-09-12T01:56:18.982Z,43.90
2022-09-12T01:57:19.039Z,45.59
2022-09-12T01:58:19.095Z,42.70
2022-09-12T01:59:19.148Z,44.40
2022-09-12T02:00:19.200Z,45.70
2022-09-12T02:01:19.279Z,45.09
2022-09-12T02:02:19.363Z,44.79
2022-09-12T02:03:19.358Z,46.50
2022-09-12T02:04:19.410Z,45.50
2022-09-12T02:05:19.464Z,43.29
2022-09-12T02:06:19.519Z,48.20
2022-09-12T02:07:19.570Z,45.29
2022-09-12T02:08:19.625Z,45.70
2022-09-12T02:09:19.688Z,47.29
2022-09-12T02:10:19.757Z,46.59
2022-09-12T02:11:19.790Z,44.70
2022-09-12T02:12:19.838Z,45.09
2022-09-12T02:13:19.887Z,46.09
2022-09-12T02:14:19.941Z,47.59
2022-09-12T02:15:19.993Z,44.20
2022-09-12T02:16:20.126Z,45.50
2022-09-12T02:17:20.105Z,44.40
2022-09-12T02:18:20.164Z,48.90
2022-09-12T02:19:20.217Z,49.20
2022-09-12T02:20:44.066Z,45.90
2022-09-12T02:21:21.336Z,47.09
2022-09-12T02:22:20.380Z,49.00
2022-09-12T02:23:20.441Z,46.79
2022-09-12T02:24:20.492Z,48.29
2022-09-12T02:25:20.553Z,50.00
2022-09-12T02:26:20.632Z,46.59
2022-09-12T02:27:20.667Z,47.09
2022-09-12T02:28:20.720Z,46.00
2022-09-12T02:29:20.773Z,46.00
2022-09-12T02:30:20.970Z,45.79
2022-09-12T02:31:20.886Z,45.29
2022-09-12T02:32:20.937Z,47.90
2022-09-12T02:33:20.987Z,49.09
2022-09-12T02:34:21.044Z,47.50
2022-09-12T02:35:21.100Z,46.70
2022-09-12T02:36:21.158Z,46.70
2022-09-12T02:37:21.213Z,45.00
2022-09-12T02:38:21.267Z,45.79
2022-09-12T02:39:21.334Z,45.50
2022-09-12T02:40:21.456Z,49.59
2022-09-12T02:41:21.440Z,46.40
2022-09-12T02:42:21.523Z,47.40
2022-09-12T02:43:21.550Z,47.59
2022-09-12T02:44:21.607Z,48.00
2022-09-12T02:45:21.660Z,45.29
2022-09-12T02:46:21.709Z,49.59
2022-09-12T02:47:21.767Z,49.59
2022-09-12T02:48:21.824Z,48.79
2022-09-12T02:49:21.881Z,50.59
2022-09-12T02:50:21.938Z,50.79
2022-09-12T02:51:23.775Z,50.59
2022-09-12T02:52:22.049Z,49.29
2022-09-12T02:53:22.106Z,48.90
2022-09-12T02:54:22.158Z,48.79
2022-09-12T02:55:22.215Z,48.70
2022-09-12T02:56:22.273Z,49.50
2022-09-12T02:57:23.226Z,46.90
2022-09-12T02:58:22.412Z,47.09
2022-09-12T02:59:22.439Z,49.40
2022-09-12T03:00:22.491Z,47.79
2022-09-12T03:01:22.623Z,48.50
2022-09-12T03:02:22.642Z,47.00
2022-09-12T03:03:22.661Z,48.29
2022-09-12T03:04:22.721Z,47.90
2022-09-12T03:05:22.776Z,47.00
2022-09-12T03:06:22.836Z,48.00
2022-09-12T03:07:22.891Z,48.29
2022-09-12T03:08:22.947Z,46.70
2022-09-12T03:09:23.003Z,46.50
2022-09-12T03:10:23.055Z,44.29
2022-09-12T03:11:23.107Z,44.00
2022-09-12T03:12:23.159Z,43.29
2022-09-12T03:13:23.214Z,44.29
2022-09-12T03:14:23.293Z,42.29
2022-09-12T03:15:23.328Z,43.79
2022-09-12T03:16:23.416Z,43.40
2022-09-12T03:17:23.448Z,42.79
2022-09-12T03:18:23.506Z,42.40
2022-09-12T03:19:23.565Z,43.09
2022-09-12T03:20:23.627Z,42.50
2022-09-12T03:21:23.689Z,41.70
2022-09-12T03:22:23.746Z,42.29
2022-09-12T03:23:23.896Z,43.79
2022-09-12T03:24:23.864Z,42.00
2022-09-12T03:25:23.923Z,43.70
2022-09-12T03:26:23.976Z,42.29
2022-09-12T03:27:24.029Z,42.90
2022-09-12T03:28:24.151Z,44.20
2022-09-12T03:29:24.145Z,44.20
2022-09-12T03:30:24.244Z,42.79
2022-09-12T03:31:24.255Z,46.09
2022-09-12T03:32:24.314Z,44.20
2022-09-12T03:33:24.366Z,45.90
2022-09-12T03:34:24.422Z,44.09
2022-09-12T03:35:24.475Z,45.00
2022-09-12T03:36:24.531Z,44.40
2022-09-12T03:37:24.589Z,46.59
2022-09-12T03:38:24.647Z,47.20
2022-09-12T03:39:24.701Z,46.20
2022-09-12T03:40:24.761Z,45.90
2022-09-12T03:41:24.819Z,49.00
2022-09-12T03:42:24.878Z,47.00
2022-09-12T03:43:24.937Z,48.20
2022-09-12T03:44:24.999Z,48.00
2022-09-12T03:45:25.163Z,48.50
2022-09-12T03:46:25.150Z,50.40
2022-09-12T03:47:25.188Z,46.59
2022-09-12T03:48:25.257Z,52.59
2022-09-12T03:49:25.309Z,50.40
2022-09-12T03:50:25.374Z,48.20
2022-09-12T03:51:25.436Z,49.79
2022-09-12T03:52:25.502Z,50.70
2022-09-12T03:53:25.568Z,51.00
2022-09-12T03:54:25.639Z,52.09
2022-09-12T03:55:25.694Z,50.70
2022-09-12T03:56:25.754Z,49.40
2022-09-12T03:57:25.816Z,52.20
2022-09-12T03:58:25.875Z,47.20
2022-09-12T03:59:25.941Z,47.79
2022-09-12T04:00:26.006Z,50.90
2022-09-12T04:01:26.117Z,51.59
2022-09-12T04:02:26.175Z,55.20
2022-09-12T04:03:26.190Z,52.29
2022-09-12T04:04:26.251Z,53.70
2022-09-12T04:05:26.316Z,50.00
2022-09-12T04:06:26.382Z,50.09
2022-09-12T04:07:26.452Z,50.40
2022-09-12T04:08:26.513Z,51.59
2022-09-12T04:09:26.577Z,50.00
2022-09-12T04:10:26.642Z,51.29
2022-09-12T04:11:26.708Z,53.29
2022-09-12T04:12:26.773Z,49.79
2022-09-12T04:13:26.835Z,54.00
2022-09-12T04:14:26.899Z,51.00
2022-09-12T04:15:26.962Z,49.59
2022-09-12T04:16:27.075Z,51.70
2022-09-12T04:17:27.085Z,48.79
2022-09-12T04:18:27.169Z,50.50
2022-09-12T04:19:27.204Z,56.00
2022-09-12T04:20:27.269Z,56.09
2022-09-12T04:21:27.325Z,69.59
2022-09-12T04:22:27.385Z,50.90
2022-09-12T04:23:27.445Z,49.29
2022-09-12T04:24:27.498Z,47.09
2022-09-12T04:25:27.552Z,48.59
2022-09-12T04:26:27.611Z,48.79
2022-09-12T04:27:27.671Z,71.19
2022-09-12T04:28:27.732Z,73.00
2022-09-12T04:29:27.791Z,68.69
2022-09-12T04:30:27.898Z,62.70
2022-09-12T04:31:27.917Z,55.70
2022-09-12T04:32:27.977Z,57.59
2022-09-12T04:33:28.030Z,65.59
2022-09-12T04:34:28.115Z,57.90
2022-09-12T04:35:28.146Z,69.00
2022-09-12T04:36:28.208Z,68.80
2022-09-12T04:37:28.275Z,79.30
2022-09-12T04:38:28.339Z,92.00
2022-09-12T04:39:28.402Z,97.80
2022-09-12T04:40:28.464Z,119.90
2022-09-12T04:41:28.530Z,109.69
2022-09-12T04:42:28.591Z,103.69
2022-09-12T04:43:28.656Z,104.19
2022-09-12T04:44:28.721Z,78.90
2022-09-12T04:45:28.790Z,67.50
2022-09-12T04:46:28.853Z,75.09
2022-09-12T04:47:28.919Z,86.50
2022-09-12T04:48:28.987Z,90.30
2022-09-12T04:49:29.055Z,93.59
2022-09-12T04:50:29.141Z,82.69
2022-09-12T04:51:29.177Z,76.59
2022-09-12T04:52:29.238Z,95.00
2022-09-12T04:53:29.296Z,56.40
2022-09-12T04:54:29.354Z,43.79
2022-09-12T04:55:29.418Z,43.59
2022-09-12T04:56:29.485Z,42.20
2022-09-12T04:57:29.550Z,41.29
2022-09-12T04:58:29.609Z,43.70
2022-09-12T04:59:29.674Z,43.59
2022-09-12T05:00:29.736Z,42.40
2022-09-12T05:01:29.848Z,46.20
2022-09-12T05:02:29.893Z,60.29
2022-09-12T05:03:29.910Z,64.40
2022-09-12T05:04:29.968Z,59.00
2022-09-12T05:05:34.763Z,57.40
2022-09-12T05:06:30.110Z,65.69
2022-09-12T05:07:30.145Z,50.79
2022-09-12T05:08:30.209Z,60.90
2022-09-12T05:09:30.268Z,103.90
2022-09-12T05:10:30.346Z,74.09
2022-09-12T05:11:46.798Z,68.69
2022-09-12T05:12:31.473Z,58.00
2022-09-12T05:13:30.507Z,56.09
2022-09-12T05:14:30.572Z,62.20
2022-09-12T05:15:30.628Z,56.09
2022-09-12T05:16:30.726Z,56.29
2022-09-12T05:17:30.746Z,55.40
2022-09-12T05:18:30.803Z,48.29
2022-09-12T05:19:30.863Z,43.90
2022-09-12T05:20:30.916Z,44.50
2022-09-12T05:21:30.995Z,44.00
2022-09-12T05:22:31.025Z,46.90
2022-09-12T05:23:31.079Z,41.29
2022-09-12T05:24:31.139Z,41.70
2022-09-12T05:25:31.184Z,39.90
2022-09-12T05:26:31.242Z,39.79
2022-09-12T05:27:31.303Z,38.00
2022-09-12T05:28:31.354Z,39.00
2022-09-12T05:29:31.413Z,37.20
2022-09-12T05:30:31.548Z,37.79
2022-09-12T05:31:31.528Z,36.09
2022-09-12T05:32:31.576Z,35.50
2022-09-12T05:33:31.625Z,35.79
2022-09-12T05:34:31.681Z,36.09
2022-09-12T05:35:31.738Z,36.20
2022-09-12T05:36:31.793Z,31.20
2022-09-12T05:37:31.856Z,33.50
2022-09-12T05:38:31.881Z,33.79
2022-09-12T05:39:31.930Z,33.00
2022-09-12T05:40:31.980Z,33.79
2022-09-12T05:41:32.028Z,31.50
2022-09-12T05:42:32.070Z,31.29
2022-09-12T05:43:32.115Z,32.79
2022-09-12T05:44:32.163Z,31.39
2022-09-12T05:45:32.245Z,31.00
2022-09-12T05:46:32.257Z,31.20
2022-09-12T05:47:32.289Z,30.79
2022-09-12T05:48:32.329Z,30.00
2022-09-12T05:49:32.376Z,28.60
2022-09-12T05:50:32.440Z,28.70
2022-09-12T05:51:32.463Z,29.79
2022-09-12T05:52:32.503Z,28.20
2022-09-12T05:53:32.572Z,28.29
2022-09-12T05:54:32.588Z,26.89
2022-09-12T05:55:32.624Z,28.00
2022-09-12T05:56:32.661Z,26.10
2022-09-12T05:57:32.697Z,24.70
2022-09-12T05:58:32.736Z,26.89
2022-09-12T05:59:32.772Z,25.70
2022-09-12T06:00:33.628Z,24.79
2022-09-12T06:01:32.871Z,24.39
2022-09-12T06:02:32.905Z,24.60
2022-09-12T06:03:32.921Z,23.79
2022-09-12T06:04:32.962Z,22.70
2022-09-12T06:05:32.996Z,23.50
2022-09-12T06:06:33.029Z,22.29
2022-09-12T06:07:33.065Z,22.20
2022-09-12T06:08:33.102Z,21.10
2022-09-12T06:09:33.160Z,20.10
2022-09-12T06:10:33.167Z,18.79
2022-09-12T06:11:33.203Z,18.29
2022-09-12T06:12:33.231Z,16.29
2022-09-12T06:13:33.268Z,16.39
2022-09-12T06:14:33.300Z,16.79
2022-09-12T06:15:33.334Z,16.79
2022-09-12T06:16:33.462Z,15.80
2022-09-12T06:17:33.405Z,15.30
2022-09-12T06:18:33.428Z,13.89
2022-09-12T06:19:33.465Z,13.60
2022-09-12T06:20:33.494Z,14.39
2022-09-12T06:21:33.521Z,13.80
2022-09-12T06:22:33.550Z,13.69
2022-09-12T06:23:33.669Z,13.60
2022-09-12T06:24:33.598Z,13.19
2022-09-12T06:25:33.647Z,13.00
2022-09-12T06:26:33.650Z,13.50
2022-09-12T06:27:33.676Z,13.10
2022-09-12T06:28:33.700Z,12.60
2022-09-12T06:29:33.721Z,12.30
2022-09-12T06:30:33.809Z,12.39
2022-09-12T06:31:33.769Z,12.00
2022-09-12T06:32:33.785Z,11.19
2022-09-12T06:33:33.809Z,12.00
2022-09-12T06:34:33.854Z,11.39
2022-09-12T06:35:33.837Z,11.10
2022-09-12T06:36:33.849Z,11.50
2022-09-12T06:37:33.861Z,11.60
2022-09-12T06:38:33.876Z,11.50
2022-09-12T06:39:33.893Z,11.00
2022-09-12T06:40:33.905Z,11.60
2022-09-12T06:41:33.946Z,12.19
2022-09-12T06:42:33.934Z,11.10
2022-09-12T06:43:33.947Z,11.00
2022-09-12T06:44:33.952Z,11.30
2022-09-12T06:45:33.963Z,10.80
2022-09-12T06:46:33.972Z,11.30
2022-09-12T06:47:33.979Z,10.89
2022-09-12T06:48:36.414Z,10.80
2022-09-12T06:49:33.990Z,10.10
2022-09-12T06:50:33.990Z,10.30
2022-09-12T06:51:33.989Z,10.10
2022-09-12T06:52:33.992Z,9.60
2022-09-12T06:53:34.037Z,9.89
2022-09-12T06:54:33.982Z,9.80
2022-09-12T06:55:33.983Z,8.69
2022-09-12T06:56:33.969Z,9.10
2022-09-12T06:57:33.989Z,8.69
2022-09-12T06:58:33.989Z,8.39
2022-09-12T06:59:33.951Z,8.30
2022-09-12T07:00:33.942Z,8.10
2022-09-12T07:01:34.013Z,8.39
2022-09-12T07:02:33.945Z,8.10
2022-09-12T07:03:33.894Z,8.10
2022-09-12T07:04:33.883Z,8.10
2022-09-12T07:05:33.867Z,7.69
2022-09-12T07:06:33.846Z,7.19
2022-09-12T07:07:33.830Z,7.09
2022-09-12T07:08:33.886Z,7.59
2022-09-12T07:09:33.793Z,8.00
2022-09-12T07:10:33.774Z,7.50
2022-09-12T07:11:33.760Z,7.59
2022-09-12T07:12:33.740Z,7.59
2022-09-12T07:13:33.743Z,7.59
2022-09-12T07:14:33.701Z,7.19
2022-09-12T07:15:33.679Z,7.50
2022-09-12T07:16:33.686Z,7.50
2022-09-12T07:17:33.640Z,7.30
2022-09-12T07:18:33.618Z,8.10
2022-09-12T07:19:33.596Z,8.00
2022-09-12T07:20:33.572Z,6.80
2022-09-12T07:21:33.546Z,7.50
2022-09-12T07:22:33.519Z,7.19
2022-09-12T07:23:33.498Z,7.59
2022-09-12T07:24:33.471Z,7.50
2022-09-12T07:25:33.445Z,7.00
2022-09-12T07:26:33.421Z,7.09
2022-09-12T07:27:33.397Z,7.30
2022-09-12T07:28:33.374Z,7.40
2022-09-12T07:29:37.210Z,7.69
2022-09-12T07:30:33.360Z,7.50
2022-09-12T07:31:33.287Z,7.30
2022-09-12T07:32:33.263Z,8.30
2022-09-12T07:33:33.236Z,8.00
2022-09-12T07:34:33.209Z,7.50
2022-09-12T07:35:33.175Z,7.09
2022-09-12T07:36:33.140Z,7.19
2022-09-12T07:37:33.100Z,7.09
2022-09-12T07:38:33.063Z,7.00
2022-09-12T07:39:33.030Z,7.19
2022-09-12T07:40:32.992Z,7.69
2022-09-12T07:41:32.958Z,7.40
2022-09-12T07:42:32.927Z,7.80
2022-09-12T07:43:32.890Z,7.50
2022-09-12T07:44:32.856Z,7.30
2022-09-12T07:45:32.838Z,7.69
2022-09-12T07:46:32.782Z,7.30
2022-09-12T07:47:32.749Z,8.39
2022-09-12T07:48:32.714Z,8.10
2022-09-12T07:49:32.679Z,8.30
2022-09-12T07:50:32.649Z,7.80
2022-09-12T07:51:32.614Z,8.00
2022-09-12T07:52:32.581Z,8.10
2022-09-12T07:53:32.548Z,7.69
2022-09-12T07:54:32.515Z,7.90
2022-09-12T07:55:32.482Z,7.69
2022-09-12T07:56:36.926Z,8.30
2022-09-12T07:57:32.416Z,7.59
2022-09-12T07:58:32.384Z,7.90
2022-09-12T07:59:51.276Z,8.60
2022-09-12T08:00:33.330Z,7.90
2022-09-12T08:01:32.353Z,8.10
2022-09-12T08:02:32.291Z,8.10
2022-09-12T08:03:32.223Z,8.00
2022-09-12T08:04:32.192Z,7.59
2022-09-12T08:05:32.161Z,7.50
2022-09-12T08:06:32.133Z,8.10
2022-09-12T08:07:32.100Z,8.60
2022-09-12T08:08:32.078Z,7.90
2022-09-12T08:09:32.041Z,8.50
2022-09-12T08:10:32.010Z,7.50
2022-09-12T08:11:31.979Z,7.00
2022-09-12T08:12:31.947Z,7.59
2022-09-12T08:13:31.913Z,7.80
2022-09-12T08:14:31.878Z,7.50
2022-09-12T08:15:31.901Z,7.59
2022-09-12T08:16:31.810Z,8.39
2022-09-12T08:17:31.798Z,7.69
2022-09-12T08:18:31.749Z,8.00
2022-09-12T08:19:31.709Z,8.10
2022-09-12T08:20:31.674Z,7.69
2022-09-12T08:21:31.639Z,7.40
2022-09-12T08:22:31.605Z,7.09
2022-09-12T08:23:31.568Z,7.80
2022-09-12T08:24:31.530Z,8.00
2022-09-12T08:25:31.488Z,8.19
2022-09-12T08:26:31.445Z,8.60
2022-09-12T08:27:31.404Z,8.19
2022-09-12T08:28:31.364Z,8.30
2022-09-12T08:29:31.319Z,7.69
2022-09-12T08:30:31.345Z,6.80
2022-09-12T08:31:31.236Z,7.90
2022-09-12T08:32:31.185Z,7.90
2022-09-12T08:33:31.159Z,7.40
2022-09-12T08:34:31.082Z,7.09
2022-09-12T08:35:31.033Z,7.69
2022-09-12T08:36:30.981Z,7.50
2022-09-12T08:37:30.938Z,7.59
2022-09-12T08:38:30.891Z,7.19
2022-09-12T08:39:30.832Z,8.00
2022-09-12T08:40:30.775Z,6.90
2022-09-12T08:41:30.721Z,7.69
2022-09-12T08:42:30.666Z,7.90
2022-09-12T08:43:30.616Z,7.40
2022-09-12T08:44:30.567Z,7.80
2022-09-12T08:45:30.505Z,8.00
2022-09-12T08:46:30.465Z,8.10
2022-09-12T08:47:30.390Z,7.90
2022-09-12T08:48:30.334Z,7.30
2022-09-12T08:49:30.307Z,7.09
2022-09-12T08:50:30.212Z,7.80
2022-09-12T08:51:30.153Z,8.00
2022-09-12T08:52:30.096Z,7.50
2022-09-12T08:53:30.035Z,7.69
2022-09-12T08:54:29.972Z,7.40
2022-09-12T08:55:29.910Z,7.19
2022-09-12T08:56:31.764Z,7.30
2022-09-12T08:57:29.774Z,7.59
2022-09-12T08:58:29.709Z,7.30
2022-09-12T08:59:29.632Z,7.00
2022-09-12T09:00:29.564Z,7.59
2022-09-12T09:01:29.519Z,7.19
2022-09-12T09:02:29.511Z,7.00
2022-09-12T09:03:29.337Z,7.50
2022-09-12T09:04:29.255Z,7.00
2022-09-12T09:05:29.197Z,7.30
2022-09-12T09:06:29.095Z,7.59
2022-09-12T09:07:29.014Z,7.40
2022-09-12T09:08:28.928Z,8.60
2022-09-12T09:09:28.836Z,7.50
2022-09-12T09:10:28.746Z,7.19
2022-09-12T09:11:28.645Z,7.00
2022-09-12T09:12:28.550Z,7.50
2022-09-12T09:13:28.456Z,7.19
2022-09-12T09:14:28.355Z,7.19
2022-09-12T09:15:28.332Z,7.80
2022-09-12T09:16:28.150Z,7.09
2022-09-12T09:17:28.038Z,7.09
2022-09-12T09:18:27.924Z,7.40
2022-09-12T09:19:27.798Z,6.80
2022-09-12T09:20:27.671Z,7.40
2022-09-12T09:21:27.562Z,7.30
2022-09-12T09:22:27.410Z,7.30
2022-09-12T09:23:27.277Z,7.19
2022-09-12T09:24:27.148Z,7.09
2022-09-12T09:25:27.022Z,7.19
2022-09-12T09:26:26.890Z,7.40
2022-09-12T09:27:40.486Z,6.59
2022-09-12T09:28:27.640Z,6.90
2022-09-12T09:29:26.512Z,6.90
2022-09-12T09:30:26.391Z,7.40
2022-09-12T09:31:26.305Z,6.69
2022-09-12T09:32:26.153Z,7.50
2022-09-12T09:33:26.039Z,7.00
2022-09-12T09:34:25.922Z,7.00
2022-09-12T09:35:25.811Z,7.40
2022-09-12T09:36:25.698Z,8.00
2022-09-12T09:37:25.612Z,7.30
2022-09-12T09:38:25.484Z,7.09
2022-09-12T09:39:25.364Z,7.00
2022-09-12T09:40:25.246Z,7.50
2022-09-12T09:41:25.132Z,6.90
2022-09-12T09:42:25.014Z,7.30
2022-09-12T09:43:24.889Z,7.80
2022-09-12T09:44:24.773Z,7.50
2022-09-12T09:45:24.645Z,7.59
2022-09-12T09:46:24.576Z,7.40
2022-09-12T09:47:24.373Z,7.69
2022-09-12T09:48:24.242Z,6.59
2022-09-12T09:49:24.100Z,6.59
2022-09-12T09:50:23.959Z,6.90
2022-09-12T09:51:23.814Z,7.69
2022-09-12T09:52:23.660Z,7.50
2022-09-12T09:53:23.646Z,7.69
2022-09-12T09:54:23.329Z,7.00
2022-09-12T09:55:23.158Z,8.10
2022-09-12T09:56:23.336Z,7.50
2022-09-12T09:57:22.800Z,7.59
2022-09-12T09:58:22.613Z,7.59
2022-09-12T09:59:22.421Z,7.90
2022-09-12T10:00:22.226Z,7.69
2022-09-12T10:01:22.062Z,7.50
2022-09-12T10:02:24.033Z,7.40
2022-09-12T10:03:21.623Z,7.30
2022-09-12T10:04:21.417Z,7.19
2022-09-12T10:05:21.199Z,7.00
2022-09-12T10:06:21.000Z,7.19
2022-09-12T10:07:20.785Z,7.80
2022-09-12T10:08:20.597Z,7.59
2022-09-12T10:09:20.397Z,8.39
2022-09-12T10:10:20.177Z,8.50
2022-09-12T10:11:19.977Z,7.80
2022-09-12T10:12:19.778Z,8.30
2022-09-12T10:13:19.589Z,8.00
2022-09-12T10:14:19.408Z,7.90
2022-09-12T10:15:19.218Z,8.00
2022-09-12T10:16:19.106Z,8.00
2022-09-12T10:17:18.866Z,8.10
2022-09-12T10:18:18.693Z,8.30
2022-09-12T10:19:18.515Z,8.80
2022-09-12T10:20:21.506Z,8.60
2022-09-12T10:21:18.162Z,8.80
2022-09-12T10:22:17.979Z,9.19
2022-09-12T10:23:17.797Z,8.19
2022-09-12T10:24:17.609Z,9.39
2022-09-12T10:25:17.444Z,8.50
2022-09-12T10:26:17.226Z,8.30
2022-09-12T10:27:17.031Z,8.60
2022-09-12T10:28:16.834Z,8.19
2022-09-12T10:29:16.634Z,8.10
2022-09-12T10:30:16.436Z,8.30
2022-09-12T10:31:16.321Z,8.00
2022-09-12T10:32:16.033Z,8.19
2022-09-12T10:33:15.817Z,8.30
2022-09-12T10:34:15.605Z,7.59
2022-09-12T10:35:15.390Z,8.00
2022-09-12T10:36:15.176Z,7.90
2022-09-12T10:37:14.965Z,7.80
2022-09-12T10:38:14.753Z,7.40
2022-09-12T10:39:14.538Z,8.39
2022-09-12T10:40:14.450Z,7.69
2022-09-12T10:41:14.121Z,7.69
2022-09-12T10:42:13.875Z,8.39
2022-09-12T10:43:13.647Z,8.30
2022-09-12T10:44:13.415Z,8.10
2022-09-12T10:45:13.186Z,8.39
2022-09-12T10:46:13.076Z,7.80
2022-09-12T10:47:12.714Z,7.40
2022-09-12T10:48:12.482Z,8.19
2022-09-12T10:49:12.254Z,7.59
2022-09-12T10:50:22.169Z,7.50
2022-09-12T10:51:11.777Z,8.10
2022-09-12T10:52:11.538Z,7.50
2022-09-12T10:53:11.292Z,7.50
2022-09-12T10:54:11.051Z,7.80
2022-09-12T10:55:10.807Z,7.90
2022-09-12T10:56:10.557Z,7.50
2022-09-12T10:57:10.336Z,7.19
2022-09-12T10:58:10.061Z,7.80
2022-09-12T10:59:09.816Z,8.00
2022-09-12T11:00:09.561Z,7.90
2022-09-12T11:01:09.380Z,7.59
2022-09-12T11:02:09.125Z,7.09
2022-09-12T11:03:08.808Z,6.09
2022-09-12T11:04:08.554Z,6.90
2022-09-12T11:05:08.307Z,6.90
2022-09-12T11:06:08.071Z,6.40
2022-09-12T11:07:07.795Z,5.90
2022-09-12T11:08:07.543Z,6.50
2022-09-12T11:09:07.293Z,6.80
2022-09-12T11:10:07.046Z,6.90
2022-09-12T11:11:06.796Z,7.00
2022-09-12T11:12:06.548Z,7.00
2022-09-12T11:13:06.323Z,6.80
2022-09-12T11:14:06.049Z,6.50
2022-09-12T11:15:05.799Z,6.00
2022-09-12T11:16:05.770Z,5.80
2022-09-12T11:17:05.303Z,6.59
2022-09-12T11:18:05.052Z,7.00
2022-09-12T11:19:04.801Z,6.30
2022-09-12T11:20:04.548Z,5.40
2022-09-12T11:21:04.288Z,4.90
2022-09-12T11:22:04.030Z,4.40
2022-09-12T11:23:03.770Z,4.69
2022-09-12T11:24:03.510Z,5.19
2022-09-12T11:25:03.249Z,5.30
2022-09-12T11:26:03.010Z,5.80
2022-09-12T11:27:02.734Z,6.59
2022-09-12T11:28:02.473Z,5.69
2022-09-12T11:29:02.239Z,5.90
2022-09-12T11:30:01.951Z,5.50
2022-09-12T11:31:01.759Z,5.69
2022-09-12T11:32:01.427Z,5.90
2022-09-12T11:33:01.161Z,5.00
2022-09-12T11:34:00.891Z,5.59
2022-09-12T11:35:00.624Z,6.00
2022-09-12T11:36:00.357Z,5.50
2022-09-12T11:37:00.100Z,4.59
2022-09-12T11:37:59.843Z,5.00
2022-09-12T11:38:59.586Z,5.00
2022-09-12T11:39:59.481Z,4.59
2022-09-12T11:40:59.095Z,4.50
2022-09-12T11:41:58.865Z,4.50
2022-09-12T11:42:58.646Z,4.40
2022-09-12T11:43:58.425Z,4.30
2022-09-12T11:44:58.214Z,4.00
2022-09-12T11:45:57.988Z,4.30
2022-09-12T11:46:57.715Z,4.30
2022-09-12T11:47:57.472Z,4.09
2022-09-12T11:48:57.225Z,4.09
2022-09-12T11:49:56.975Z,4.09
2022-09-12T11:50:56.718Z,3.90
2022-09-12T11:51:56.464Z,4.50
2022-09-12T11:52:56.201Z,5.09
2022-09-12T11:53:55.944Z,4.50
2022-09-12T11:54:55.686Z,3.79
2022-09-12T11:55:55.427Z,3.59
2022-09-12T11:56:55.164Z,3.40
2022-09-12T11:57:54.909Z,3.29
2022-09-12T11:58:54.668Z,3.20
2022-09-12T11:59:54.428Z,3.79
2022-09-12T12:00:54.215Z,3.79
2022-09-12T12:01:53.933Z,3.90
2022-09-12T12:02:53.676Z,3.70
2022-09-12T12:03:53.459Z,3.40
2022-09-12T12:04:53.162Z,3.40
2022-09-12T12:05:52.905Z,3.90
2022-09-12T12:06:52.638Z,3.29
2022-09-12T12:07:52.369Z,3.59
2022-09-12T12:08:52.100Z,3.70
2022-09-12T12:09:51.916Z,4.19
2022-09-12T12:10:51.557Z,4.09
2022-09-12T12:11:51.292Z,4.19
2022-09-12T12:12:51.028Z,4.30
2022-09-12T12:13:50.760Z,4.59
2022-09-12T12:14:50.493Z,4.59
2022-09-12T12:15:50.283Z,3.70
2022-09-12T12:16:49.974Z,4.80
2022-09-12T12:17:49.673Z,4.69
2022-09-12T12:18:49.408Z,4.90
2022-09-12T12:19:49.160Z,4.69
2022-09-12T12:20:48.926Z,4.19
2022-09-12T12:21:48.684Z,4.40
2022-09-12T12:22:48.436Z,4.30
2022-09-12T12:23:48.183Z,4.90
2022-09-12T12:24:47.921Z,4.59
2022-09-12T12:25:47.655Z,4.90
2022-09-12T12:26:47.382Z,4.90
2022-09-12T12:27:47.110Z,4.69
2022-09-12T12:28:47.178Z,5.00
2022-09-12T12:29:46.615Z,4.69
2022-09-12T12:30:46.323Z,4.59
2022-09-12T12:31:45.988Z,4.00
2022-09-12T12:32:45.729Z,4.30
2022-09-12T12:33:45.420Z,4.00
2022-09-12T12:34:45.132Z,3.90
2022-09-12T12:35:44.843Z,4.30
2022-09-12T12:36:44.546Z,3.90
2022-09-12T12:37:44.255Z,4.50
2022-09-12T12:38:43.969Z,3.79
2022-09-12T12:39:43.837Z,3.59
2022-09-12T12:40:43.404Z,3.90
2022-09-12T12:41:43.116Z,3.79
2022-09-12T12:42:42.827Z,4.80
2022-09-12T12:43:42.566Z,4.69
2022-09-12T12:44:42.237Z,3.79
2022-09-12T12:45:41.945Z,4.40
2022-09-12T12:46:41.707Z,3.90
2022-09-12T12:47:41.367Z,4.19
2022-09-12T12:48:41.103Z,4.00
2022-09-12T12:49:40.786Z,3.79
2022-09-12T12:50:40.499Z,3.40
2022-09-12T12:51:40.223Z,3.79
2022-09-12T12:52:39.947Z,3.70
2022-09-12T12:53:39.674Z,4.00
2022-09-12T12:54:39.399Z,3.90
2022-09-12T12:55:39.134Z,3.79
2022-09-12T12:56:38.887Z,3.40
2022-09-12T12:57:38.644Z,3.70
2022-09-12T12:58:38.391Z,3.70
2022-09-12T12:59:38.140Z,3.50
2022-09-12T13:00:39.772Z,3.70
2022-09-12T13:01:37.669Z,3.79
2022-09-12T13:02:37.470Z,3.79
2022-09-12T13:03:37.062Z,3.40